Terminal Aerodrome Forecast
Issued by NWS Binghamton, NY

Home | Current Version | Previous Version | Text Only | Print | Product List | Glossary On
Versions: 1 2 3 4 5 6 7 8 9 10 11 12 13 14 15 16 17 18 19 20 21 22 23 24 25 26 27 28 29 30 31 32 33 34 35 36 37 38 39 40
000
FTUS41 KBGM 191142
TAFBGM
TAF
KBGM 191142Z 1912/2012 36005KT P6SM BKN035
      TEMPO 1913/1915 2SM -SN OVC025
     FM191500 07007KT P6SM FEW015 OVC025
     FM191900 10005KT 2SM -SN OVC015
     FM192100 10006KT 1/2SM SN OVC012
     FM200000 11009KT 1/4SM +SN OVC009
     FM200800 05009KT 1/2SM SN OVC005=

USA.gov is the U.S. government's official web portal to all federal, state and local government web resources and services.